Terminal Aerodrome Forecast
Issued by NWS

Home | Current Version | Previous Version | Text Only | Print | Product List | Glossary On
Versions: 1 2 3 4 5 6 7 8 9 10 11 12 13 14 15 16 17 18 19 20 21 22 23 24 25 26 27 28 29 30 31 32 33 34 35 36 37 38 39 40
000
FTUS42 KMFL 142349
TAFTMB
TAF
KTMB 142349Z 1500/1524 09012KT P6SM VCSH SCT040 BKN060 BKN250
     FM150400 09010G15KT P6SM VCSH SCT035 BKN050 BKN250
     FM151400 12015G25KT P6SM VCSH SCT035 BKN050=

USA.gov is the U.S. government's official web portal to all federal, state and local government web resources and services.